Time;durP1;ratioP1;P1;durP2;ratioP2;P2;SDS_P1;SDS_P2;PMS_P1;PMS_P2;Temp;Humidity;BMP_temperature;BMP_pressure;BME280_temperature;BME280_humidity;BME280_pressure;Samples;Min_cycle;Max_cycle;Signal;HPM_P1;HPM_P2
2022/10/07 00:01:03;;;;;;;3.87;1.33;;;;;;;;;;4987526;28;20249;-75
2022/10/07 00:03:28;;;;;;;2.43;1.20;;;;;;;;;;4956322;28;20221;-75
2022/10/07 00:06:06;;;;;;;4.10;1.40;;;;;;;;;;4960282;28;20654;-76
2022/10/07 00:08:34;;;;;;;4.70;1.20;;;;;;;;;;4963619;28;20276;-74
2022/10/07 00:11:04;;;;;;;3.77;1.73;;;;;;;;;;4966920;28;20604;-74
2022/10/07 00:13:29;;;;;;;3.93;1.47;;;;;;;;;;4976150;28;20227;-75
2022/10/07 00:16:05;;;;;;;4.43;1.60;;;;;;;;;;4952536;28;20240;-74
2022/10/07 00:18:36;;;;;;;7.63;1.70;;;;;;;;;;4958380;28;20700;-76
2022/10/07 00:21:06;;;;;;;4.23;1.60;;;;;;;;;;4944016;28;20237;-75
2022/10/07 00:23:34;;;;;;;1.77;1.00;;;;;;;;;;4950395;28;20227;-75
2022/10/07 00:26:01;;;;;;;3.50;1.60;;;;;;;;;;4933463;28;20713;-75
2022/10/07 00:28:27;;;;;;;6.53;1.73;;;;;;;;;;4951484;28;20779;-75
2022/10/07 00:30:58;;;;;;;5.73;2.10;;;;;;;;;;4961448;28;20227;-76
2022/10/07 00:33:23;;;;;;;3.27;1.60;;;;;;;;;;4976830;28;20233;-75
2022/10/07 00:35:52;;;;;;;3.60;1.50;;;;;;;;;;4967458;28;20231;-75
2022/10/07 00:38:20;;;;;;;5.23;1.40;;;;;;;;;;4957464;28;20258;-75
2022/10/07 00:40:46;;;;;;;6.70;1.70;;;;;;;;;;4962487;28;20226;-75
2022/10/07 00:43:25;;;;;;;4.10;1.40;;;;;;;;;;4977521;28;20721;-75
2022/10/07 00:45:54;;;;;;;3.43;1.30;;;;;;;;;;4974590;28;20230;-75
2022/10/07 00:48:22;;;;;;;3.20;1.20;;;;;;;;;;4967607;28;20215;-75
2022/10/07 00:50:49;;;;;;;2.83;1.30;;;;;;;;;;4955410;28;20222;-75
2022/10/07 00:53:18;;;;;;;3.40;1.40;;;;;;;;;;4966587;28;20233;-75
2022/10/07 00:55:48;;;;;;;3.90;1.40;;;;;;;;;;4943885;28;20272;-75
2022/10/07 00:58:14;;;;;;;2.03;1.20;;;;;;;;;;4951409;28;20218;-75
2022/10/07 01:00:42;;;;;;;2.60;1.40;;;;;;;;;;4936709;28;20226;-75
2022/10/07 01:03:12;;;;;;;6.17;1.70;;;;;;;;;;4972837;28;20226;-75
2022/10/07 01:05:37;;;;;;;1.53;1.20;;;;;;;;;;4989998;28;20579;-75
2022/10/07 01:08:03;;;;;;;4.97;1.50;;;;;;;;;;4989948;28;20281;-76
2022/10/07 01:10:35;;;;;;;2.73;1.43;;;;;;;;;;4946867;28;20744;-75
2022/10/07 01:13:24;;;;;;;6.70;1.70;;;;;;;;;;4989082;28;20262;-75
2022/10/07 01:16:01;;;;;;;6.70;1.80;;;;;;;;;;4993574;28;20305;-75
2022/10/07 01:18:43;;;;;;;1.93;1.40;;;;;;;;;;4984710;28;20268;-75
2022/10/07 01:21:20;;;;;;;4.43;1.50;;;;;;;;;;4974915;28;20250;-75
2022/10/07 01:23:51;;;;;;;3.93;1.67;;;;;;;;;;4975032;28;20602;-75
2022/10/07 01:26:38;;;;;;;7.23;2.37;;;;;;;;;;4972511;28;20609;-75
2022/10/07 01:29:17;;;;;;;4.70;1.57;;;;;;;;;;4981892;28;20275;-75
2022/10/07 01:31:49;;;;;;;5.03;1.80;;;;;;;;;;4953064;28;20226;-74
2022/10/07 01:34:17;;;;;;;4.47;1.57;;;;;;;;;;4942017;28;20221;-76
2022/10/07 01:36:43;;;;;;;4.57;1.80;;;;;;;;;;4948719;28;20219;-76
2022/10/07 01:39:12;;;;;;;4.63;1.60;;;;;;;;;;4949890;28;20713;-75
2022/10/07 01:41:37;;;;;;;4.20;1.67;;;;;;;;;;4949929;28;20637;-76
2022/10/07 01:44:06;;;;;;;3.73;1.53;;;;;;;;;;4951122;28;20218;-76
2022/10/07 01:46:36;;;;;;;5.20;2.13;;;;;;;;;;4949417;28;20230;-75
2022/10/07 01:49:04;;;;;;;2.23;1.63;;;;;;;;;;4971139;28;20217;-74
2022/10/07 01:51:33;;;;;;;7.10;2.07;;;;;;;;;;4951217;28;20226;-76
2022/10/07 01:54:31;;;;;;;5.17;1.80;;;;;;;;;;4945865;28;20225;-76
2022/10/07 01:57:20;;;;;;;5.57;1.90;;;;;;;;;;4931475;28;20713;-75
2022/10/07 02:00:09;;;;;;;4.10;1.90;;;;;;;;;;4994442;28;20222;-75
2022/10/07 02:02:46;;;;;;;2.50;1.90;;;;;;;;;;4968610;28;20710;-76
2022/10/07 02:05:29;;;;;;;2.30;1.77;;;;;;;;;;4983976;28;20226;-76
2022/10/07 02:08:32;;;;;;;3.17;1.70;;;;;;;;;;4976959;28;20227;-76
2022/10/07 02:10:58;;;;;;;4.37;1.90;;;;;;;;;;4983000;28;20256;-76
2022/10/07 02:13:26;;;;;;;5.53;1.83;;;;;;;;;;4964830;28;20253;-75
2022/10/07 02:16:18;;;;;;;4.27;1.80;;;;;;;;;;4982799;28;20329;-74
2022/10/07 02:18:47;;;;;;;4.40;2.20;;;;;;;;;;4985692;28;20605;-75
2022/10/07 02:21:15;;;;;;;3.30;1.90;;;;;;;;;;4954923;28;20241;-77
2022/10/07 02:23:43;;;;;;;3.10;2.00;;;;;;;;;;4952338;28;20681;-74
2022/10/07 02:26:09;;;;;;;2.80;1.70;;;;;;;;;;4979006;28;20554;-75
2022/10/07 02:28:37;;;;;;;6.67;1.70;;;;;;;;;;4945419;28;20303;-74
2022/10/07 02:31:02;;;;;;;3.50;1.90;;;;;;;;;;4947313;28;20226;-73
2022/10/07 02:33:34;;;;;;;3.90;1.90;;;;;;;;;;4970263;28;20313;-76
2022/10/07 02:36:02;;;;;;;4.37;1.70;;;;;;;;;;4962354;28;20234;-75
2022/10/07 02:38:30;;;;;;;2.67;1.67;;;;;;;;;;4969454;28;20228;-75
2022/10/07 02:41:34;;;;;;;8.57;1.80;;;;;;;;;;4963408;28;20638;-76
2022/10/07 02:44:14;;;;;;;3.90;1.37;;;;;;;;;;4994247;28;20225;-76
2022/10/07 02:46:47;;;;;;;2.93;1.80;;;;;;;;;;4982935;28;20612;-74
2022/10/07 02:49:17;;;;;;;4.80;1.80;;;;;;;;;;4969009;28;20226;-74
2022/10/07 02:51:53;;;;;;;4.63;1.77;;;;;;;;;;4964141;28;20799;-76
2022/10/07 02:54:27;;;;;;;2.23;1.60;;;;;;;;;;4970743;28;20272;-75
2022/10/07 02:56:59;;;;;;;7.10;1.90;;;;;;;;;;4961747;28;20227;-76
2022/10/07 02:59:28;;;;;;;2.63;1.70;;;;;;;;;;4965509;28;20285;-76
2022/10/07 03:02:00;;;;;;;2.40;1.50;;;;;;;;;;4952678;28;20251;-77
2022/10/07 03:04:30;;;;;;;3.83;1.50;;;;;;;;;;4963104;28;20261;-76
2022/10/07 03:06:57;;;;;;;2.30;1.60;;;;;;;;;;4984297;28;20231;-76
2022/10/07 03:09:27;;;;;;;3.23;1.77;;;;;;;;;;4953891;28;20281;-75
2022/10/07 03:11:55;;;;;;;2.73;1.70;;;;;;;;;;4964798;28;20231;-75
2022/10/07 03:14:23;;;;;;;2.87;1.90;;;;;;;;;;4952954;28;20353;-75
2022/10/07 03:16:52;;;;;;;3.93;3.07;;;;;;;;;;4952893;28;20222;-75
2022/10/07 03:19:21;;;;;;;15.13;12.67;;;;;;;;;;4988773;28;20232;-75
2022/10/07 03:21:57;;;;;;;4.10;2.50;;;;;;;;;;4953100;28;20772;-75
2022/10/07 03:24:23;;;;;;;4.93;2.83;;;;;;;;;;4971725;28;20223;-75
2022/10/07 03:26:49;;;;;;;10.63;1.87;;;;;;;;;;4975956;28;20223;-75
2022/10/07 03:29:16;;;;;;;5.93;2.83;;;;;;;;;;4953354;28;20218;-75
2022/10/07 03:31:44;;;;;;;3.57;2.00;;;;;;;;;;4944964;28;20238;-76
2022/10/07 03:34:12;;;;;;;2.30;1.83;;;;;;;;;;4953273;28;20233;-74
2022/10/07 03:36:41;;;;;;;7.33;3.70;;;;;;;;;;4979753;28;20219;-75
2022/10/07 03:39:07;;;;;;;5.00;3.80;;;;;;;;;;4992237;28;20237;-75
2022/10/07 03:41:46;;;;;;;4.23;3.33;;;;;;;;;;4949248;28;20653;-75
2022/10/07 03:44:13;;;;;;;9.73;3.90;;;;;;;;;;4949772;28;20228;-75
2022/10/07 03:46:39;;;;;;;5.33;3.60;;;;;;;;;;4975982;28;20221;-75
2022/10/07 03:49:06;;;;;;;2.90;2.53;;;;;;;;;;4976061;28;20236;-75
2022/10/07 03:51:34;;;;;;;2.70;2.00;;;;;;;;;;4947085;28;20226;-75
2022/10/07 03:54:03;;;;;;;3.43;2.10;;;;;;;;;;4951499;28;20939;-75
2022/10/07 03:56:33;;;;;;;3.03;2.00;;;;;;;;;;4949449;28;20227;-76
2022/10/07 03:59:01;;;;;;;4.13;2.07;;;;;;;;;;4938748;28;20253;-75
2022/10/07 04:01:30;;;;;;;2.80;2.20;;;;;;;;;;4950771;28;20214;-74
2022/10/07 04:04:00;;;;;;;2.73;1.57;;;;;;;;;;4951947;28;20230;-74
2022/10/07 04:06:28;;;;;;;4.93;2.43;;;;;;;;;;4967251;28;20704;-76
2022/10/07 04:08:54;;;;;;;5.93;2.43;;;;;;;;;;4951817;28;20599;-76
2022/10/07 04:11:23;;;;;;;4.40;1.97;;;;;;;;;;4989116;28;20277;-76
2022/10/07 04:13:54;;;;;;;6.73;2.57;;;;;;;;;;4983140;28;20222;-76
2022/10/07 04:16:24;;;;;;;8.07;2.40;;;;;;;;;;4962694;28;20352;-73
2022/10/07 04:18:56;;;;;;;5.00;2.30;;;;;;;;;;4958823;28;20246;-76
2022/10/07 04:21:24;;;;;;;3.97;2.47;;;;;;;;;;4952123;28;20230;-76
2022/10/07 04:23:50;;;;;;;4.00;2.20;;;;;;;;;;4954055;28;20225;-76
2022/10/07 04:26:18;;;;;;;2.67;2.20;;;;;;;;;;4977976;28;20254;-76
2022/10/07 04:28:50;;;;;;;5.47;2.13;;;;;;;;;;4974292;28;20843;-74
2022/10/07 04:31:23;;;;;;;7.03;2.63;;;;;;;;;;4969131;28;20229;-75
2022/10/07 04:33:57;;;;;;;4.33;2.37;;;;;;;;;;4962434;28;20222;-76
2022/10/07 04:36:30;;;;;;;6.00;2.63;;;;;;;;;;4968143;28;20253;-76
2022/10/07 04:39:01;;;;;;;4.03;2.40;;;;;;;;;;4951865;28;20219;-75
2022/10/07 04:41:34;;;;;;;4.93;2.63;;;;;;;;;;4952272;28;20641;-75
2022/10/07 04:44:01;;;;;;;4.33;2.53;;;;;;;;;;4963429;28;20265;-76
2022/10/07 04:46:34;;;;;;;5.20;2.50;;;;;;;;;;4952275;28;20226;-75
2022/10/07 04:49:05;;;;;;;2.97;1.93;;;;;;;;;;4966879;28;20226;-76
2022/10/07 04:51:36;;;;;;;3.47;2.23;;;;;;;;;;4957867;28;20830;-75
2022/10/07 04:54:04;;;;;;;3.13;2.00;;;;;;;;;;4961738;28;20219;-75
2022/10/07 04:56:41;;;;;;;3.63;1.93;;;;;;;;;;4952518;28;20309;-75
2022/10/07 04:59:12;;;;;;;2.37;1.97;;;;;;;;;;4950055;28;20756;-75
2022/10/07 05:01:39;;;;;;;4.00;2.30;;;;;;;;;;4949502;28;20221;-75
2022/10/07 05:04:05;;;;;;;6.93;2.87;;;;;;;;;;4964967;28;20227;-75
2022/10/07 05:06:32;;;;;;;3.87;2.33;;;;;;;;;;4948232;28;20742;-73
2022/10/07 05:09:00;;;;;;;3.57;2.40;;;;;;;;;;4961086;28;20250;-75
2022/10/07 05:11:28;;;;;;;6.53;2.63;;;;;;;;;;4936629;28;20222;-75
2022/10/07 05:14:06;;;;;;;4.13;2.43;;;;;;;;;;4952808;28;20256;-77
2022/10/07 05:16:33;;;;;;;3.00;2.30;;;;;;;;;;4962420;28;20218;-76
2022/10/07 05:19:02;;;;;;;5.97;3.40;;;;;;;;;;4956616;28;20618;-74
2022/10/07 05:21:32;;;;;;;4.87;3.23;;;;;;;;;;4972089;28;20228;-76
2022/10/07 05:23:59;;;;;;;6.33;2.80;;;;;;;;;;4977135;28;20222;-74
2022/10/07 05:26:32;;;;;;;3.30;2.70;;;;;;;;;;4983550;28;20226;-75
2022/10/07 05:29:00;;;;;;;4.00;2.73;;;;;;;;;;4952123;28;20226;-73
2022/10/07 05:31:33;;;;;;;3.50;2.90;;;;;;;;;;4974710;28;20230;-74
2022/10/07 05:34:06;;;;;;;6.40;2.80;;;;;;;;;;4975587;28;20226;-74
2022/10/07 05:36:35;;;;;;;4.00;2.60;;;;;;;;;;4968027;28;20736;-74
2022/10/07 05:39:04;;;;;;;4.57;2.83;;;;;;;;;;4950313;28;20229;-74
2022/10/07 05:41:50;;;;;;;5.30;2.70;;;;;;;;;;4972394;28;20225;-75
2022/10/07 05:44:23;;;;;;;6.83;3.17;;;;;;;;;;4944809;28;20218;-75
2022/10/07 05:46:51;;;;;;;4.53;2.90;;;;;;;;;;4942445;28;20768;-75
2022/10/07 05:49:21;;;;;;;8.00;3.40;;;;;;;;;;4990191;28;20229;-75
2022/10/07 05:51:46;;;;;;;5.10;2.80;;;;;;;;;;4954816;28;20789;-75
2022/10/07 05:54:12;;;;;;;5.33;3.20;;;;;;;;;;4974053;28;20226;-74
2022/10/07 05:56:43;;;;;;;5.23;3.23;;;;;;;;;;4960662;28;20241;-74
2022/10/07 05:59:12;;;;;;;4.03;2.60;;;;;;;;;;4949806;28;20226;-73
2022/10/07 06:01:59;;;;;;;5.97;3.17;;;;;;;;;;4949723;28;20225;-75
2022/10/07 06:04:30;;;;;;;7.63;2.63;;;;;;;;;;4950124;28;20236;-73
2022/10/07 06:06:56;;;;;;;5.33;2.90;;;;;;;;;;4978490;28;20234;-73
2022/10/07 06:15:03;;;;;;;3.80;3.00;;;;;;;;;;4961506;28;20286;-74
2022/10/07 06:17:34;;;;;;;2.70;2.50;;;;;;;;;;4946808;28;20226;-75
2022/10/07 06:20:03;;;;;;;5.13;3.03;;;;;;;;;;4957863;28;20223;-75
2022/10/07 06:22:32;;;;;;;4.83;2.90;;;;;;;;;;4963379;28;20222;-75
2022/10/07 06:25:01;;;;;;;4.43;2.90;;;;;;;;;;4965833;28;20671;-74
2022/10/07 06:27:28;;;;;;;4.33;3.27;;;;;;;;;;4958187;28;20265;-75
2022/10/07 06:29:54;;;;;;;6.20;4.00;;;;;;;;;;4966387;28;20223;-75
2022/10/07 06:32:20;;;;;;;5.73;3.97;;;;;;;;;;4950485;28;20230;-73
2022/10/07 06:34:50;;;;;;;5.73;3.50;;;;;;;;;;4951573;28;20269;-74
2022/10/07 06:37:16;;;;;;;4.73;3.43;;;;;;;;;;4949877;28;20219;-72
2022/10/07 06:39:42;;;;;;;4.47;2.83;;;;;;;;;;4949136;28;20636;-75
2022/10/07 06:42:10;;;;;;;4.37;3.10;;;;;;;;;;4954183;28;20225;-75
2022/10/07 06:44:45;;;;;;;4.67;3.07;;;;;;;;;;4962726;28;20222;-74
2022/10/07 06:47:17;;;;;;;5.93;2.80;;;;;;;;;;4953252;28;20225;-76
2022/10/07 06:49:44;;;;;;;5.20;3.30;;;;;;;;;;4968537;28;20235;-76
2022/10/07 06:52:12;;;;;;;3.43;2.97;;;;;;;;;;4937304;28;20234;-75
2022/10/07 06:54:40;;;;;;;9.30;5.57;;;;;;;;;;4936904;28;20229;-74
2022/10/07 06:57:06;;;;;;;11.50;4.00;;;;;;;;;;4968749;28;20234;-76
2022/10/07 06:59:31;;;;;;;6.33;3.43;;;;;;;;;;4970757;28;20226;-75
2022/10/07 07:02:05;;;;;;;4.50;3.00;;;;;;;;;;4979093;28;20245;-76
2022/10/07 07:04:31;;;;;;;8.70;4.33;;;;;;;;;;4964001;28;20768;-76
2022/10/07 07:06:57;;;;;;;5.23;2.80;;;;;;;;;;4953277;28;20226;-75
2022/10/07 07:09:23;;;;;;;5.47;3.10;;;;;;;;;;4935724;28;20322;-75
2022/10/07 07:11:51;;;;;;;7.30;2.77;;;;;;;;;;4974304;28;20234;-76
2022/10/07 07:14:25;;;;;;;4.07;2.67;;;;;;;;;;4977055;28;20230;-74
2022/10/07 07:16:58;;;;;;;4.63;2.50;;;;;;;;;;4964338;28;20230;-75
2022/10/07 07:19:25;;;;;;;3.80;2.10;;;;;;;;;;4962665;28;20225;-73
2022/10/07 07:21:51;;;;;;;4.23;2.40;;;;;;;;;;4963293;28;20229;-74
2022/10/07 07:24:21;;;;;;;5.73;2.83;;;;;;;;;;4964063;28;20222;-74
2022/10/07 07:26:49;;;;;;;2.57;2.33;;;;;;;;;;4945769;28;20227;-74
2022/10/07 07:29:16;;;;;;;4.87;2.83;;;;;;;;;;4995222;28;20241;-73
2022/10/07 07:31:49;;;;;;;5.77;2.20;;;;;;;;;;4960372;28;20237;-73
2022/10/07 07:34:17;;;;;;;7.70;2.67;;;;;;;;;;4986624;28;20221;-73
2022/10/07 07:36:47;;;;;;;6.60;4.80;;;;;;;;;;4943600;28;20246;-74
2022/10/07 07:39:20;;;;;;;6.83;5.33;;;;;;;;;;4989750;28;20962;-74
2022/10/07 07:41:55;;;;;;;7.63;6.27;;;;;;;;;;4969052;28;20644;-74
2022/10/07 07:44:22;;;;;;;10.00;6.97;;;;;;;;;;4965629;28;20575;-74
2022/10/07 07:46:51;;;;;;;8.70;6.83;;;;;;;;;;4954738;28;20230;-75
2022/10/07 07:49:19;;;;;;;9.63;5.03;;;;;;;;;;4960450;28;20223;-75
2022/10/07 07:51:45;;;;;;;8.27;4.63;;;;;;;;;;4942874;28;20662;-75
2022/10/07 07:54:19;;;;;;;6.07;3.53;;;;;;;;;;4945172;28;20229;-73
2022/10/07 07:56:47;;;;;;;9.47;3.97;;;;;;;;;;4952141;28;20329;-74
2022/10/07 07:59:13;;;;;;;6.40;3.77;;;;;;;;;;4986842;28;20234;-76
2022/10/07 08:01:39;;;;;;;6.23;3.27;;;;;;;;;;4978064;28;20219;-74
2022/10/07 08:04:08;;;;;;;7.33;2.90;;;;;;;;;;4967208;28;20771;-74
2022/10/07 08:06:34;;;;;;;7.30;3.40;;;;;;;;;;4968750;28;20607;-74
2022/10/07 08:09:02;;;;;;;8.63;3.80;;;;;;;;;;4970251;28;20619;-74
2022/10/07 08:11:31;;;;;;;7.87;3.47;;;;;;;;;;4952369;28;20282;-74
2022/10/07 08:14:02;;;;;;;7.30;3.57;;;;;;;;;;4967965;28;20226;-74
2022/10/07 08:16:28;;;;;;;4.83;3.47;;;;;;;;;;4951406;28;20223;-74
2022/10/07 08:18:55;;;;;;;6.77;3.80;;;;;;;;;;4968304;28;20281;-73
2022/10/07 08:21:23;;;;;;;8.90;3.43;;;;;;;;;;4939412;28;20218;-74
2022/10/07 08:23:57;;;;;;;8.80;3.30;;;;;;;;;;4989978;28;20226;-74
2022/10/07 08:26:27;;;;;;;7.50;3.10;;;;;;;;;;4959184;28;20304;-74
2022/10/07 08:28:55;;;;;;;5.23;2.73;;;;;;;;;;4958833;28;20218;-74
2022/10/07 08:31:26;;;;;;;4.90;2.90;;;;;;;;;;4935137;28;20222;-74
2022/10/07 08:33:51;;;;;;;5.43;2.90;;;;;;;;;;4991025;28;20230;-74
2022/10/07 08:36:21;;;;;;;5.60;2.73;;;;;;;;;;4944854;28;20332;-74
2022/10/07 08:38:46;;;;;;;4.93;2.53;;;;;;;;;;4992627;28;20715;-74
2022/10/07 08:41:41;;;;;;;10.17;3.10;;;;;;;;;;4957500;28;20325;-73
2022/10/07 08:44:12;;;;;;;6.73;2.50;;;;;;;;;;4968600;28;20234;-74
2022/10/07 08:46:46;;;;;;;6.20;2.47;;;;;;;;;;4974924;28;20227;-74
2022/10/07 08:49:14;;;;;;;6.23;2.47;;;;;;;;;;4974182;28;20228;-74
2022/10/07 08:51:45;;;;;;;6.27;2.30;;;;;;;;;;4963571;28;20244;-74
2022/10/07 08:54:12;;;;;;;5.37;2.20;;;;;;;;;;4983742;28;20732;-74
2022/10/07 08:56:38;;;;;;;7.43;2.17;;;;;;;;;;4953022;28;20222;-74
2022/10/07 08:59:22;;;;;;;4.83;1.90;;;;;;;;;;4946405;28;20248;-74
2022/10/07 09:01:53;;;;;;;8.03;1.73;;;;;;;;;;4988798;28;20675;-74
2022/10/07 09:04:40;;;;;;;5.20;2.00;;;;;;;;;;4977304;28;20689;-74
2022/10/07 09:07:16;;;;;;;8.77;2.03;;;;;;;;;;4957664;28;20226;-74
2022/10/07 09:09:56;;;;;;;8.97;2.03;;;;;;;;;;4968504;28;20230;-73
2022/10/07 09:12:34;;;;;;;5.03;1.93;;;;;;;;;;4983496;28;20257;-73
2022/10/07 09:15:02;;;;;;;6.70;2.57;;;;;;;;;;4978112;28;20712;-73
2022/10/07 09:17:39;;;;;;;8.38;2.00;;;;;;;;;;4987440;28;20257;-74
2022/10/07 09:20:10;;;;;;;8.43;2.30;;;;;;;;;;4964289;28;20823;-74
2022/10/07 09:22:39;;;;;;;5.07;2.45;;;;;;;;;;4996412;28;20273;-73
2022/10/07 09:25:10;;;;;;;4.85;1.90;;;;;;;;;;4976979;28;20249;-75
2022/10/07 09:27:35;;;;;;;4.10;1.98;;;;;;;;;;4958793;28;20230;-75
2022/10/07 09:30:03;;;;;;;7.68;1.98;;;;;;;;;;4945367;28;20296;-74
2022/10/07 09:32:28;;;;;;;5.93;2.33;;;;;;;;;;4959006;28;20675;-74
2022/10/07 09:35:02;;;;;;;5.22;1.92;;;;;;;;;;4950888;28;20230;-73
2022/10/07 09:37:27;;;;;;;5.10;1.90;;;;;;;;;;4992966;28;20230;-75
2022/10/07 09:39:56;;;;;;;6.30;1.95;;;;;;;;;;4951389;28;20717;-74
2022/10/07 09:42:32;;;;;;;16.70;2.53;;;;;;;;;;4951148;28;20398;-75
2022/10/07 09:45:02;;;;;;;3.42;1.83;;;;;;;;;;4976632;28;20229;-74
2022/10/07 09:47:35;;;;;;;6.97;1.95;;;;;;;;;;4949646;28;20246;-73
2022/10/07 09:50:09;;;;;;;4.45;2.10;;;;;;;;;;4962348;28;20230;-75
2022/10/07 09:52:37;;;;;;;5.93;2.03;;;;;;;;;;4959946;28;20729;-75
2022/10/07 09:55:39;;;;;;;4.72;2.40;;;;;;;;;;4950234;28;20234;-73
2022/10/07 09:58:15;;;;;;;5.63;2.08;;;;;;;;;;4959861;28;20244;-74
2022/10/07 10:00:42;;;;;;;6.30;1.90;;;;;;;;;;4974476;28;20688;-74
2022/10/07 10:03:08;;;;;;;5.15;1.80;;;;;;;;;;4946973;28;20234;-75
2022/10/07 10:05:50;;;;;;;6.45;1.92;;;;;;;;;;4951177;28;20226;-76
2022/10/07 10:08:15;;;;;;;4.32;1.75;;;;;;;;;;4973280;28;20234;-75
2022/10/07 10:10:41;;;;;;;5.72;1.60;;;;;;;;;;4971873;28;20284;-76
2022/10/07 10:13:27;;;;;;;6.07;1.75;;;;;;;;;;4958225;28;20242;-75
2022/10/07 10:15:55;;;;;;;4.22;1.90;;;;;;;;;;4975136;28;20325;-77
2022/10/07 10:18:42;;;;;;;7.25;2.05;;;;;;;;;;4946132;28;20294;-75
2022/10/07 10:21:24;;;;;;;6.30;1.85;;;;;;;;;;4985206;28;20229;-75
2022/10/07 10:23:51;;;;;;;3.42;1.60;;;;;;;;;;4946359;28;20305;-76
2022/10/07 10:26:32;;;;;;;4.28;1.88;;;;;;;;;;4949144;28;20240;-78
2022/10/07 10:29:01;;;;;;;7.72;1.88;;;;;;;;;;4969108;28;20234;-78
2022/10/07 10:31:42;;;;;;;4.25;1.80;;;;;;;;;;4962918;28;20233;-75
2022/10/07 10:34:33;;;;;;;6.63;1.95;;;;;;;;;;4979932;28;20301;-75
2022/10/07 10:37:19;;;;;;;7.10;2.05;;;;;;;;;;4970531;28;20230;-78
2022/10/07 10:40:12;;;;;;;6.38;2.10;;;;;;;;;;4956460;28;20244;-74
2022/10/07 10:42:57;;;;;;;4.30;1.52;;;;;;;;;;4956261;28;20749;-77
2022/10/07 10:45:43;;;;;;;6.30;1.85;;;;;;;;;;4959904;28;20230;-77
2022/10/07 10:48:29;;;;;;;10.23;2.20;;;;;;;;;;4979986;28;20271;-77
2022/10/07 10:51:33;;;;;;;4.30;1.60;;;;;;;;;;4967568;28;20560;-74
2022/10/07 10:54:38;;;;;;;4.10;1.75;;;;;;;;;;4993778;28;20222;-76
2022/10/07 10:57:30;;;;;;;4.78;1.88;;;;;;;;;;4948846;28;20265;-75
2022/10/07 11:00:16;;;;;;;4.72;2.03;;;;;;;;;;4962490;28;20231;-75
2022/10/07 11:03:00;;;;;;;5.07;1.65;;;;;;;;;;4965553;28;20258;-74
2022/10/07 11:05:39;;;;;;;4.13;1.70;;;;;;;;;;4977781;28;20230;-76
2022/10/07 11:08:21;;;;;;;4.07;1.55;;;;;;;;;;4959694;28;20290;-76
2022/10/07 11:10:48;;;;;;;4.72;1.60;;;;;;;;;;4960771;28;20321;-75
2022/10/07 11:13:31;;;;;;;5.15;1.77;;;;;;;;;;4969066;28;20234;-73
2022/10/07 11:16:03;;;;;;;3.50;1.73;;;;;;;;;;4977775;28;20325;-73
2022/10/07 11:18:36;;;;;;;6.78;2.15;;;;;;;;;;4979331;28;20231;-75
2022/10/07 11:21:03;;;;;;;4.82;1.83;;;;;;;;;;4974048;28;20234;-75
2022/10/07 11:23:43;;;;;;;5.68;1.83;;;;;;;;;;4938108;28;20224;-74
2022/10/07 11:26:19;;;;;;;4.65;1.75;;;;;;;;;;4968686;28;20246;-74
2022/10/07 11:28:45;;;;;;;3.50;1.58;;;;;;;;;;4974712;28;20221;-73
2022/10/07 11:31:41;;;;;;;5.60;1.77;;;;;;;;;;4964591;28;20224;-74
2022/10/07 11:34:13;;;;;;;5.13;1.92;;;;;;;;;;4977232;28;20226;-74
2022/10/07 11:36:57;;;;;;;5.32;1.90;;;;;;;;;;4994441;28;20646;-73
2022/10/07 11:39:25;;;;;;;4.22;1.60;;;;;;;;;;4959573;28;20274;-74
2022/10/07 11:41:55;;;;;;;6.60;1.90;;;;;;;;;;4965005;28;20211;-74
2022/10/07 11:44:25;;;;;;;4.72;1.50;;;;;;;;;;4979123;28;20230;-73
2022/10/07 11:46:51;;;;;;;3.33;1.60;;;;;;;;;;4947860;28;20776;-73
2022/10/07 11:49:23;;;;;;;5.45;1.58;;;;;;;;;;4961222;28;20229;-74
2022/10/07 11:52:00;;;;;;;8.43;1.90;;;;;;;;;;4978436;28;20246;-75
2022/10/07 11:54:30;;;;;;;4.38;1.80;;;;;;;;;;4976869;28;20214;-73
2022/10/07 11:57:00;;;;;;;7.50;1.73;;;;;;;;;;4964187;28;20720;-74
2022/10/07 11:59:40;;;;;;;6.07;1.80;;;;;;;;;;4940128;28;20229;-74
2022/10/07 12:02:28;;;;;;;3.65;1.65;;;;;;;;;;4976192;28;20227;-73
2022/10/07 12:05:00;;;;;;;3.88;1.55;;;;;;;;;;4965756;28;20234;-73
2022/10/07 12:08:02;;;;;;;8.65;2.08;;;;;;;;;;4949984;28;20222;-73
2022/10/07 12:10:31;;;;;;;5.72;1.90;;;;;;;;;;4940894;28;21087;-72
2022/10/07 12:13:03;;;;;;;7.10;1.85;;;;;;;;;;4944222;28;20238;-73
2022/10/07 12:15:39;;;;;;;7.07;2.00;;;;;;;;;;4974993;28;20775;-73
2022/10/07 12:18:09;;;;;;;4.60;2.13;;;;;;;;;;4993034;28;20675;-75
2022/10/07 12:20:45;;;;;;;5.80;1.95;;;;;;;;;;4959233;28;20285;-76
2022/10/07 12:23:20;;;;;;;8.32;2.10;;;;;;;;;;4959080;28;20233;-75
2022/10/07 12:25:49;;;;;;;5.22;1.77;;;;;;;;;;4978514;28;20576;-75
2022/10/07 12:28:47;;;;;;;4.45;1.58;;;;;;;;;;5066974;27;20529;-75
2022/10/07 12:31:13;;;;;;;4.57;1.90;;;;;;;;;;5022335;28;20289;-74
2022/10/07 12:33:42;;;;;;;5.15;1.75;;;;;;;;;;5033432;28;20232;-75
2022/10/07 12:36:26;;;;;;;5.22;1.65;;;;;;;;;;5028262;28;20237;-76
2022/10/07 12:39:01;;;;;;;3.38;1.52;;;;;;;;;;5062827;28;20222;-75
2022/10/07 12:41:30;;;;;;;5.03;1.95;;;;;;;;;;5064121;28;20230;-75
2022/10/07 12:44:32;;;;;;;8.35;1.90;;;;;;;;;;5003754;28;20226;-76
2022/10/07 12:47:10;;;;;;;5.47;1.83;;;;;;;;;;5023434;28;20235;-76
2022/10/07 12:49:53;;;;;;;5.60;1.60;;;;;;;;;;5047205;28;20262;-76
2022/10/07 12:52:57;;;;;;;5.10;1.55;;;;;;;;;;5031336;28;20215;-76
2022/10/07 12:55:35;;;;;;;4.07;1.70;;;;;;;;;;5050692;28;20226;-76
2022/10/07 13:01:10;;;;;;;6.07;1.92;;;;;;;;;;5017784;28;20219;-76
2022/10/07 13:03:51;;;;;;;5.72;1.98;;;;;;;;;;5022767;28;20239;-75
2022/10/07 13:06:54;;;;;;;7.72;2.00;;;;;;;;;;5023644;28;20341;-76
2022/10/07 13:09:42;;;;;;;6.28;1.92;;;;;;;;;;5035616;28;20723;-75
2022/10/07 13:12:38;;;;;;;6.50;1.95;;;;;;;;;;5047901;28;20240;-76
2022/10/07 13:15:12;;;;;;;10.13;2.08;;;;;;;;;;5026764;28;20250;-74
2022/10/07 13:18:19;;;;;;;3.67;1.30;;;;;;;;;;5046486;28;20226;-77
2022/10/07 13:21:03;;;;;;;3.80;1.77;;;;;;;;;;5020814;28;20226;-75
2022/10/07 13:23:29;;;;;;;5.00;1.60;;;;;;;;;;5039612;28;20298;-75
2022/10/07 13:25:56;;;;;;;5.30;1.92;;;;;;;;;;5031060;28;20223;-75
2022/10/07 13:28:29;;;;;;;4.90;2.00;;;;;;;;;;5031319;28;20319;-75
2022/10/07 13:30:54;;;;;;;6.90;1.80;;;;;;;;;;5006352;28;20247;-74
2022/10/07 13:33:29;;;;;;;6.55;1.70;;;;;;;;;;5017142;28;20610;-73
2022/10/07 13:36:20;;;;;;;7.18;1.90;;;;;;;;;;5012528;28;20283;-74
2022/10/07 13:38:47;;;;;;;4.35;1.60;;;;;;;;;;5038594;28;20322;-73
2022/10/07 13:41:27;;;;;;;4.43;1.52;;;;;;;;;;4999449;28;20224;-76
2022/10/07 13:44:04;;;;;;;6.45;1.73;;;;;;;;;;5023084;28;20850;-75
2022/10/07 13:46:34;;;;;;;4.28;1.90;;;;;;;;;;5003537;28;20226;-77
2022/10/07 13:49:00;;;;;;;3.00;1.60;;;;;;;;;;5014496;28;20228;-74
2022/10/07 13:51:27;;;;;;;5.63;1.65;;;;;;;;;;4995226;28;20599;-76
2022/10/07 13:53:57;;;;;;;5.95;2.13;;;;;;;;;;5019204;28;20625;-75
2022/10/07 13:56:23;;;;;;;4.72;1.80;;;;;;;;;;4999880;28;20220;-76
2022/10/07 13:58:52;;;;;;;5.75;2.05;;;;;;;;;;5007576;28;20804;-75
2022/10/07 14:01:18;;;;;;;6.70;1.90;;;;;;;;;;5016528;28;20710;-75
2022/10/07 14:04:22;;;;;;;3.70;1.77;;;;;;;;;;4996543;28;20221;-75
2022/10/07 14:07:10;;;;;;;6.82;1.70;;;;;;;;;;4986178;28;20299;-75
2022/10/07 14:09:45;;;;;;;2.97;1.35;;;;;;;;;;5009776;28;20227;-76
2022/10/07 14:12:34;;;;;;;3.78;1.40;;;;;;;;;;5001097;28;20681;-75
2022/10/07 14:15:02;;;;;;;6.70;1.80;;;;;;;;;;5040587;28;20244;-76
2022/10/07 14:17:47;;;;;;;5.15;1.75;;;;;;;;;;5006456;28;21057;-76
2022/10/07 14:20:28;;;;;;;6.72;1.90;;;;;;;;;;5001610;28;20316;-75
2022/10/07 14:22:56;;;;;;;4.97;1.55;;;;;;;;;;5010131;28;20717;-76
2022/10/07 14:25:26;;;;;;;6.47;2.17;;;;;;;;;;5028797;28;20314;-76
2022/10/07 14:28:15;;;;;;;5.72;1.88;;;;;;;;;;5000144;28;20322;-76
2022/10/07 14:36:22;;;;;;;4.07;2.05;;;;;;;;;;5034756;28;20231;-76
2022/10/07 14:38:48;;;;;;;6.75;2.10;;;;;;;;;;4988247;28;20227;-76
2022/10/07 14:41:16;;;;;;;5.13;1.70;;;;;;;;;;5010394;28;20744;-75
2022/10/07 14:43:43;;;;;;;5.45;1.77;;;;;;;;;;5015088;28;20972;-75
2022/10/07 14:46:18;;;;;;;6.60;1.63;;;;;;;;;;5037471;28;20236;-76
2022/10/07 14:48:46;;;;;;;4.10;1.60;;;;;;;;;;5000927;28;20264;-76
2022/10/07 14:51:15;;;;;;;5.53;1.90;;;;;;;;;;5046732;28;20528;-76
2022/10/07 14:53:41;;;;;;;3.58;1.45;;;;;;;;;;5016762;28;20274;-77
2022/10/07 14:56:13;;;;;;;6.57;2.00;;;;;;;;;;4997265;28;20231;-76
2022/10/07 14:58:38;;;;;;;5.53;1.60;;;;;;;;;;5003639;28;20322;-76
2022/10/07 15:01:06;;;;;;;6.70;1.80;;;;;;;;;;5012363;28;20225;-76
2022/10/07 15:03:35;;;;;;;5.25;2.03;;;;;;;;;;5035485;28;20299;-75
2022/10/07 15:06:01;;;;;;;4.57;2.08;;;;;;;;;;5007765;28;20238;-75
2022/10/07 15:08:26;;;;;;;4.03;1.80;;;;;;;;;;5016589;28;20229;-75
2022/10/07 15:10:52;;;;;;;5.63;1.85;;;;;;;;;;5021463;28;20220;-75
2022/10/07 15:13:17;;;;;;;5.80;1.85;;;;;;;;;;5017570;28;20240;-76
2022/10/07 15:15:43;;;;;;;3.85;1.42;;;;;;;;;;5046170;28;20235;-75
2022/10/07 15:18:11;;;;;;;6.45;2.50;;;;;;;;;;5010380;28;20309;-76
2022/10/07 15:20:41;;;;;;;7.63;3.10;;;;;;;;;;5025208;28;20215;-76
2022/10/07 15:23:09;;;;;;;5.57;2.90;;;;;;;;;;5017435;28;20223;-76
2022/10/07 15:25:38;;;;;;;3.47;2.00;;;;;;;;;;5017505;28;20718;-76
2022/10/07 15:28:04;;;;;;;4.63;2.17;;;;;;;;;;4989712;28;20244;-74
2022/10/07 15:30:31;;;;;;;4.60;1.60;;;;;;;;;;5026766;28;20248;-74